createdAt,value
2024-02-29T00:00:05.924Z,10.05
2024-02-29T00:02:51.143Z,9.63
2024-02-29T00:05:37.736Z,9.70
2024-02-29T00:08:23.064Z,8.55
2024-02-29T00:11:08.361Z,9.90
2024-02-29T00:13:53.958Z,10.50
2024-02-29T00:16:40.735Z,11.18
2024-02-29T00:19:25.874Z,10.13
2024-02-29T00:22:11.430Z,10.05
2024-02-29T00:24:56.878Z,10.38
2024-02-29T00:27:42.312Z,9.98
2024-02-29T00:30:27.667Z,9.70
2024-02-29T00:33:12.998Z,10.20
2024-02-29T00:36:08.902Z,14.80
2024-02-29T00:39:05.724Z,9.90
2024-02-29T00:41:56.964Z,10.93
2024-02-29T00:44:42.437Z,12.40
2024-02-29T00:47:27.904Z,12.18
2024-02-29T00:50:13.656Z,13.80
2024-02-29T00:52:58.669Z,15.20
2024-02-29T00:55:44.617Z,18.73
2024-02-29T00:58:29.854Z,20.58
2024-02-29T01:01:15.341Z,18.10
2024-02-29T01:04:00.689Z,19.58
2024-02-29T01:06:46.050Z,17.50
2024-02-29T01:09:31.430Z,18.98
2024-02-29T01:12:16.860Z,20.42
2024-02-29T01:15:02.111Z,20.25
2024-02-29T01:17:50.637Z,19.35
2024-02-29T01:20:36.983Z,22.95
2024-02-29T01:23:22.370Z,20.52
2024-02-29T01:26:08.082Z,18.90
2024-02-29T01:28:53.426Z,20.92
2024-02-29T01:31:38.902Z,22.65
2024-02-29T01:34:24.369Z,19.63
2024-02-29T01:37:09.828Z,18.33
2024-02-29T01:39:55.181Z,21.10
2024-02-29T01:42:43.797Z,21.67
2024-02-29T01:45:29.690Z,18.20
2024-02-29T01:48:15.478Z,20.65
2024-02-29T01:51:00.629Z,18.13
2024-02-29T01:53:46.290Z,18.90
2024-02-29T01:56:31.813Z,18.33
2024-02-29T01:59:18.344Z,18.58
2024-02-29T02:02:03.672Z,18.30
2024-02-29T02:04:48.967Z,17.48
2024-02-29T02:07:36.710Z,19.35
2024-02-29T02:10:22.903Z,18.63
2024-02-29T02:13:09.019Z,20.67
2024-02-29T02:15:54.861Z,22.65
2024-02-29T02:18:40.291Z,21.35
2024-02-29T02:21:25.622Z,23.55
2024-02-29T02:24:11.049Z,22.20
2024-02-29T02:26:56.686Z,21.65
2024-02-29T02:29:41.930Z,22.92
2024-02-29T02:32:27.349Z,23.90
2024-02-29T02:35:12.912Z,22.80
2024-02-29T02:37:58.062Z,22.45
2024-02-29T02:40:43.607Z,21.85
2024-02-29T02:43:29.183Z,21.73
2024-02-29T02:46:14.763Z,19.17
2024-02-29T02:49:00.191Z,21.17
2024-02-29T02:51:45.914Z,21.45
2024-02-29T02:54:31.198Z,20.15
2024-02-29T02:57:17.068Z,19.33
2024-02-29T03:00:02.445Z,18.67
2024-02-29T03:02:47.933Z,20.35
2024-02-29T03:05:33.285Z,20.50
2024-02-29T03:08:18.771Z,20.98
2024-02-29T03:11:04.525Z,19.98
2024-02-29T03:13:50.025Z,19.40
2024-02-29T03:16:35.742Z,21.13
2024-02-29T03:19:20.826Z,20.13
2024-02-29T03:22:06.153Z,19.63
2024-02-29T03:24:53.339Z,19.30
2024-02-29T03:27:38.979Z,19.45
2024-02-29T03:30:24.401Z,19.23
2024-02-29T03:33:10.718Z,18.52
2024-02-29T03:35:56.239Z,19.08
2024-02-29T03:38:41.741Z,19.08
2024-02-29T03:41:27.811Z,18.90
2024-02-29T03:44:12.935Z,19.27
2024-02-29T03:46:58.350Z,17.58
2024-02-29T03:49:43.663Z,17.08
2024-02-29T03:52:29.070Z,17.40
2024-02-29T03:55:14.827Z,17.15
2024-02-29T03:58:00.360Z,17.55
2024-02-29T04:00:45.664Z,16.73
2024-02-29T04:03:31.117Z,16.50
2024-02-29T04:06:16.544Z,16.48
2024-02-29T04:09:02.734Z,17.67
2024-02-29T04:11:47.954Z,15.30
2024-02-29T04:14:35.171Z,17.40
2024-02-29T04:17:20.585Z,16.75
2024-02-29T04:20:07.011Z,18.05
2024-02-29T04:22:52.128Z,18.52
2024-02-29T04:25:38.280Z,17.73
2024-02-29T04:28:23.751Z,18.40
2024-02-29T04:31:10.200Z,16.63
2024-02-29T04:33:55.650Z,18.42
2024-02-29T04:36:41.041Z,19.27
2024-02-29T04:39:26.528Z,18.63
2024-02-29T04:42:11.972Z,19.63
2024-02-29T04:44:57.524Z,19.60
2024-02-29T04:47:43.168Z,21.00
2024-02-29T04:50:28.590Z,19.85
2024-02-29T04:53:15.381Z,19.08
2024-02-29T04:56:01.828Z,21.63
2024-02-29T04:58:47.029Z,20.63
2024-02-29T05:01:33.433Z,20.42
2024-02-29T05:04:18.707Z,19.23
2024-02-29T05:07:05.211Z,18.00
2024-02-29T05:09:50.654Z,19.50
2024-02-29T05:12:36.112Z,23.90
2024-02-29T05:15:22.290Z,42.45
2024-02-29T05:18:08.375Z,48.05
2024-02-29T05:20:53.973Z,37.28
2024-02-29T05:23:39.445Z,29.88
2024-02-29T05:26:24.868Z,27.92
2024-02-29T05:29:10.244Z,28.88
2024-02-29T05:31:55.832Z,27.60
2024-02-29T05:34:41.013Z,29.02
2024-02-29T05:37:26.551Z,30.80
2024-02-29T05:40:14.110Z,34.75
2024-02-29T05:42:59.225Z,61.10
2024-02-29T05:45:44.979Z,56.30
2024-02-29T05:48:35.783Z,69.13
2024-02-29T05:51:21.357Z,54.67
2024-02-29T05:54:06.957Z,65.57
2024-02-29T05:56:51.952Z,70.90
2024-02-29T05:59:37.542Z,57.95
2024-02-29T06:02:22.716Z,60.33
2024-02-29T06:05:09.071Z,76.00
2024-02-29T06:07:54.927Z,63.63
2024-02-29T06:10:40.062Z,67.25
2024-02-29T06:13:29.965Z,53.72
2024-02-29T06:16:15.642Z,45.42
2024-02-29T06:19:01.206Z,38.90
2024-02-29T06:21:47.102Z,37.60
2024-02-29T06:24:32.375Z,36.75
2024-02-29T06:27:18.592Z,38.83
2024-02-29T06:30:05.432Z,46.58
2024-02-29T06:32:50.701Z,46.83
2024-02-29T06:35:36.024Z,41.92
2024-02-29T06:38:21.972Z,35.10
2024-02-29T06:41:10.434Z,31.67
2024-02-29T06:43:55.584Z,33.85
2024-02-29T06:46:40.925Z,30.83
2024-02-29T06:49:26.316Z,28.92
2024-02-29T06:52:11.764Z,28.85
2024-02-29T06:54:57.346Z,28.92
2024-02-29T06:57:43.464Z,29.77
2024-02-29T07:00:28.672Z,34.35
2024-02-29T07:03:13.895Z,32.97
2024-02-29T07:05:59.519Z,34.40
2024-02-29T07:08:44.986Z,33.67
2024-02-29T07:11:31.953Z,32.60
2024-02-29T07:14:17.787Z,31.05
2024-02-29T07:17:02.917Z,32.20
2024-02-29T07:19:48.338Z,33.05
2024-02-29T07:22:33.511Z,31.67
2024-02-29T07:25:18.739Z,30.73
2024-02-29T07:28:04.690Z,28.65
2024-02-29T07:30:50.414Z,29.38
2024-02-29T07:33:36.584Z,29.95
2024-02-29T07:36:22.922Z,30.15
2024-02-29T07:39:08.722Z,28.20
2024-02-29T07:41:54.237Z,28.83
2024-02-29T07:44:39.575Z,29.27
2024-02-29T07:47:24.848Z,28.23
2024-02-29T07:50:11.004Z,26.55
2024-02-29T07:52:56.215Z,26.70
2024-02-29T07:55:41.687Z,25.23
2024-02-29T07:58:27.580Z,25.38
2024-02-29T08:01:12.964Z,25.13
2024-02-29T08:03:59.695Z,23.15
2024-02-29T08:06:45.194Z,23.98
2024-02-29T08:09:30.631Z,24.45
2024-02-29T08:12:15.996Z,25.85
2024-02-29T08:15:01.405Z,24.45
2024-02-29T08:17:47.898Z,23.55
2024-02-29T08:20:33.213Z,25.70
2024-02-29T08:23:18.651Z,25.27
2024-02-29T08:26:11.046Z,25.33
2024-02-29T08:28:56.472Z,26.52
2024-02-29T08:31:42.866Z,26.42
2024-02-29T08:34:28.525Z,23.73
2024-02-29T08:37:14.107Z,24.23
2024-02-29T08:39:59.528Z,25.20
2024-02-29T08:42:44.915Z,25.20
2024-02-29T08:45:30.667Z,23.60
2024-02-29T08:48:15.879Z,23.67
2024-02-29T08:51:01.285Z,24.25
2024-02-29T08:53:47.030Z,21.90
2024-02-29T08:56:32.322Z,23.17
2024-02-29T08:59:18.717Z,24.30
2024-02-29T09:02:05.697Z,22.38
2024-02-29T09:04:51.621Z,22.27
2024-02-29T09:07:37.376Z,21.50
2024-02-29T09:10:23.163Z,23.20
2024-02-29T09:13:20.464Z,23.23
2024-02-29T09:16:14.065Z,23.10
2024-02-29T09:19:02.632Z,20.73
2024-02-29T09:21:49.359Z,21.85
2024-02-29T09:24:34.642Z,20.27
2024-02-29T09:27:20.443Z,20.25
2024-02-29T09:30:06.934Z,21.73
2024-02-29T09:32:54.060Z,19.98
2024-02-29T09:35:39.621Z,21.10
2024-02-29T09:38:26.081Z,20.60
2024-02-29T09:44:05.256Z,21.58
2024-02-29T09:46:51.689Z,20.15
2024-02-29T09:49:37.102Z,18.73
2024-02-29T09:52:26.379Z,19.15
2024-02-29T09:55:16.610Z,22.00
2024-02-29T09:58:03.007Z,21.27
2024-02-29T10:00:49.154Z,19.42
2024-02-29T10:03:34.661Z,18.90
2024-02-29T10:06:20.522Z,18.92
2024-02-29T10:09:06.003Z,19.30
2024-02-29T10:11:54.455Z,16.60
2024-02-29T10:14:39.724Z,17.83
2024-02-29T10:17:25.701Z,18.60
2024-02-29T10:20:14.333Z,18.35
2024-02-29T10:22:59.876Z,16.80
2024-02-29T10:25:49.494Z,17.48
2024-02-29T10:28:34.912Z,17.58
2024-02-29T10:31:20.391Z,17.10
2024-02-29T10:34:05.858Z,16.45
2024-02-29T10:36:51.551Z,17.77
2024-02-29T10:39:39.690Z,16.88
2024-02-29T10:42:25.428Z,18.17
2024-02-29T10:45:15.324Z,17.75
2024-02-29T10:48:38.694Z,17.80
2024-02-29T10:51:42.290Z,17.35
2024-02-29T10:54:43.397Z,18.58
2024-02-29T10:57:43.752Z,16.50
2024-02-29T11:00:29.250Z,16.92
2024-02-29T11:03:14.660Z,17.92
2024-02-29T11:06:01.884Z,16.35
2024-02-29T11:08:47.878Z,17.08
2024-02-29T11:11:33.044Z,17.20
2024-02-29T11:14:21.608Z,15.35
2024-02-29T11:17:06.973Z,15.85
2024-02-29T11:20:08.407Z,15.65
2024-02-29T11:23:10.517Z,16.80
2024-02-29T11:25:58.318Z,16.42
2024-02-29T11:28:43.868Z,17.25
2024-02-29T11:31:28.967Z,17.13
2024-02-29T11:34:17.594Z,16.00
2024-02-29T11:37:06.337Z,15.88
2024-02-29T11:42:39.454Z,14.60
2024-02-29T11:45:27.021Z,14.48
2024-02-29T11:48:12.478Z,13.60
2024-02-29T11:50:57.831Z,13.95
2024-02-29T11:53:44.822Z,14.00
2024-02-29T11:56:31.252Z,13.68
2024-02-29T11:59:19.591Z,12.63
2024-02-29T12:02:07.030Z,13.02
2024-02-29T12:04:52.888Z,14.20
2024-02-29T12:07:38.494Z,12.40
2024-02-29T12:10:24.988Z,14.00
2024-02-29T12:13:10.693Z,13.60
2024-02-29T12:15:57.194Z,12.43
2024-02-29T12:18:42.997Z,13.68
2024-02-29T12:21:28.546Z,13.93
2024-02-29T12:24:14.524Z,12.55
2024-02-29T12:27:00.291Z,14.05
2024-02-29T12:29:45.739Z,14.43
2024-02-29T12:32:30.988Z,13.55
2024-02-29T12:35:17.701Z,13.68
2024-02-29T12:38:04.478Z,12.88
2024-02-29T12:40:53.073Z,13.15
2024-02-29T12:43:39.950Z,12.63
2024-02-29T12:46:26.340Z,13.45
2024-02-29T12:49:12.129Z,13.07
2024-02-29T12:51:57.912Z,13.15
2024-02-29T12:54:43.519Z,11.75
2024-02-29T12:57:28.705Z,10.48
2024-02-29T13:00:21.109Z,10.77
2024-02-29T13:03:08.901Z,9.80
2024-02-29T13:05:55.397Z,8.27
2024-02-29T13:08:40.714Z,7.65
2024-02-29T13:11:26.095Z,6.85
2024-02-29T13:14:11.681Z,6.78
2024-02-29T13:16:57.559Z,7.25
2024-02-29T13:19:42.781Z,6.35
2024-02-29T13:22:28.435Z,5.20
2024-02-29T13:43:41.114Z,4.90
2024-02-29T13:46:29.785Z,5.05
2024-02-29T13:49:21.654Z,5.88
2024-02-29T13:52:08.616Z,5.28
2024-02-29T13:54:53.938Z,4.82
2024-02-29T13:57:40.363Z,5.45
2024-02-29T14:00:26.018Z,5.93
2024-02-29T14:03:12.805Z,5.28
2024-02-29T14:05:58.164Z,5.88
2024-02-29T14:08:43.970Z,6.07
2024-02-29T14:11:29.617Z,6.60
2024-02-29T14:14:15.481Z,6.45
2024-02-29T14:17:02.121Z,7.65
2024-02-29T14:19:47.380Z,8.50
2024-02-29T14:22:33.661Z,7.45
2024-02-29T14:25:19.601Z,7.18
2024-02-29T14:28:05.284Z,8.27
2024-02-29T14:30:50.384Z,8.55
2024-02-29T14:33:36.162Z,8.20
2024-02-29T14:36:21.884Z,8.20
2024-02-29T14:39:12.891Z,7.95
2024-02-29T14:41:58.589Z,8.25
2024-02-29T14:44:44.007Z,7.50
2024-02-29T14:47:30.198Z,8.40
2024-02-29T14:50:15.497Z,7.38
2024-02-29T14:53:01.049Z,7.32
2024-02-29T14:55:46.635Z,7.38
2024-02-29T14:58:32.109Z,8.15
2024-02-29T15:01:17.822Z,6.97
2024-02-29T15:04:03.009Z,8.27
2024-02-29T15:06:48.454Z,8.93
2024-02-29T15:09:33.932Z,7.03
2024-02-29T15:12:19.297Z,7.88
2024-02-29T15:15:05.307Z,7.28
2024-02-29T15:17:50.853Z,6.53
2024-02-29T15:20:36.352Z,6.60
2024-02-29T15:23:21.853Z,9.00
2024-02-29T15:26:11.622Z,6.50
2024-02-29T15:28:56.627Z,6.30
2024-02-29T15:31:43.272Z,5.85
2024-02-29T15:34:28.804Z,5.55
2024-02-29T15:37:14.138Z,6.15
2024-02-29T15:40:00.702Z,6.28
2024-02-29T15:42:45.747Z,5.75
2024-02-29T15:45:31.095Z,6.75
2024-02-29T15:48:16.485Z,6.15
2024-02-29T15:51:02.194Z,6.15
2024-02-29T15:53:47.782Z,6.18
2024-02-29T15:56:33.055Z,5.85
2024-02-29T15:59:18.491Z,7.22
2024-02-29T16:02:04.123Z,7.18
2024-02-29T16:04:49.534Z,6.85
2024-02-29T16:07:34.776Z,6.40
2024-02-29T16:10:20.146Z,6.45
2024-02-29T16:13:05.987Z,6.03
2024-02-29T16:15:51.441Z,7.18
2024-02-29T16:18:37.033Z,6.47
2024-02-29T16:21:22.339Z,6.68
2024-02-29T16:24:07.967Z,6.00
2024-02-29T16:26:56.454Z,6.45
2024-02-29T16:29:41.735Z,6.85
2024-02-29T16:32:27.049Z,6.35
2024-02-29T16:35:12.928Z,7.10
2024-02-29T16:37:59.611Z,7.30
2024-02-29T16:40:45.649Z,6.43
2024-02-29T16:43:31.098Z,8.32
2024-02-29T16:46:17.952Z,8.65
2024-02-29T16:49:03.153Z,9.70
2024-02-29T16:51:48.501Z,13.43
2024-02-29T16:54:33.705Z,11.48
2024-02-29T16:57:19.384Z,13.30
2024-02-29T17:00:05.259Z,12.05
2024-02-29T17:02:50.768Z,12.05
2024-02-29T17:05:35.836Z,11.52
2024-02-29T17:08:21.303Z,13.15
2024-02-29T17:11:06.912Z,11.05
2024-02-29T17:13:52.779Z,8.88
2024-02-29T17:16:38.563Z,15.77
2024-02-29T17:19:24.176Z,11.73
2024-02-29T17:22:09.594Z,10.98
2024-02-29T17:24:58.840Z,11.95
2024-02-29T17:27:44.326Z,10.30
2024-02-29T17:30:29.699Z,12.82
2024-02-29T17:33:15.034Z,15.18
2024-02-29T17:36:00.090Z,15.32
2024-02-29T17:38:45.720Z,11.48
2024-02-29T17:41:31.201Z,11.18
2024-02-29T17:44:20.172Z,12.00
2024-02-29T17:47:05.868Z,10.25
2024-02-29T17:49:50.891Z,8.77
2024-02-29T17:52:36.152Z,9.25
2024-02-29T17:55:21.608Z,10.50
2024-02-29T17:58:06.661Z,11.02
2024-02-29T18:00:52.254Z,9.63
2024-02-29T18:03:37.471Z,10.27
2024-02-29T18:06:23.006Z,8.40
2024-02-29T18:09:11.433Z,9.85
2024-02-29T18:11:56.613Z,8.85
2024-02-29T18:14:41.763Z,9.50
2024-02-29T18:17:27.276Z,8.15
2024-02-29T18:20:15.620Z,8.38
2024-02-29T18:23:00.777Z,9.57
2024-02-29T18:25:47.483Z,7.57
2024-02-29T18:28:32.766Z,7.50
2024-02-29T18:34:24.971Z,8.48
2024-02-29T18:37:10.565Z,8.32
2024-02-29T18:39:55.924Z,8.45
2024-02-29T18:42:41.797Z,8.60
2024-02-29T18:45:26.976Z,7.82
2024-02-29T18:48:12.820Z,8.43
2024-02-29T18:50:58.272Z,7.78
2024-02-29T18:53:43.665Z,7.72
2024-02-29T18:56:28.709Z,7.80
2024-02-29T18:59:15.458Z,8.23
2024-02-29T19:02:02.930Z,7.45
2024-02-29T19:04:52.594Z,6.93
2024-02-29T19:07:38.199Z,8.25
2024-02-29T19:10:24.288Z,7.05
2024-02-29T19:13:09.528Z,7.65
2024-02-29T19:15:54.916Z,7.63
2024-02-29T19:18:41.829Z,7.68
2024-02-29T19:21:26.936Z,8.13
2024-02-29T19:24:12.638Z,7.28
2024-02-29T19:26:58.122Z,8.90
2024-02-29T19:29:43.613Z,7.70
2024-02-29T19:32:28.634Z,7.75
2024-02-29T19:35:13.947Z,7.20
2024-02-29T19:37:59.368Z,7.20
2024-02-29T19:40:44.470Z,7.72
2024-02-29T19:43:29.921Z,8.00
2024-02-29T19:46:15.061Z,7.60
2024-02-29T19:49:00.859Z,6.97
2024-02-29T19:51:46.121Z,7.57
2024-02-29T19:54:31.218Z,7.07
2024-02-29T19:57:16.161Z,7.20
2024-02-29T20:00:01.552Z,8.55
2024-02-29T20:02:46.753Z,6.88
2024-02-29T20:05:32.009Z,8.00
2024-02-29T20:08:17.245Z,7.88
2024-02-29T20:11:02.689Z,7.78
2024-02-29T20:13:48.842Z,8.27
2024-02-29T20:16:34.509Z,7.32
2024-02-29T20:19:19.904Z,8.55
2024-02-29T20:22:05.248Z,8.57
2024-02-29T20:24:51.264Z,7.57
2024-02-29T20:27:37.255Z,7.80
2024-02-29T20:30:23.614Z,7.75
2024-02-29T20:33:09.086Z,8.30
2024-02-29T20:35:54.294Z,7.22
2024-02-29T20:38:39.718Z,7.25
2024-02-29T20:41:25.958Z,7.47
2024-02-29T20:44:11.281Z,7.72
2024-02-29T20:46:56.674Z,7.25
2024-02-29T20:49:43.417Z,7.00
2024-02-29T20:52:28.778Z,6.97
2024-02-29T20:55:14.578Z,7.57
2024-02-29T20:57:59.719Z,7.45
2024-02-29T21:00:45.184Z,7.18
2024-02-29T21:03:30.428Z,7.75
2024-02-29T21:06:16.645Z,7.53
2024-02-29T21:09:01.784Z,7.07
2024-02-29T21:11:47.571Z,8.10
2024-02-29T21:14:32.880Z,7.93
2024-02-29T21:17:18.056Z,7.18
2024-02-29T21:20:03.755Z,8.23
2024-02-29T21:22:49.286Z,8.07
2024-02-29T21:25:34.955Z,7.57
2024-02-29T21:28:20.566Z,8.23
2024-02-29T21:31:05.644Z,7.10
2024-02-29T21:33:50.947Z,7.60
2024-02-29T21:36:36.161Z,7.82
2024-02-29T21:39:28.468Z,8.18
2024-02-29T21:42:22.589Z,9.65
2024-02-29T21:45:08.898Z,11.60
2024-02-29T21:47:55.447Z,9.50
2024-02-29T21:50:41.924Z,9.30
2024-02-29T21:53:27.414Z,9.18
2024-02-29T21:56:16.207Z,8.80
2024-02-29T21:59:01.131Z,9.73
2024-02-29T22:01:47.825Z,8.52
2024-02-29T22:04:33.509Z,8.75
2024-02-29T22:07:18.969Z,8.77
2024-02-29T22:10:04.582Z,8.88
2024-02-29T22:12:49.642Z,10.18
2024-02-29T22:15:35.140Z,9.10
2024-02-29T22:18:20.556Z,9.93
2024-02-29T22:21:06.003Z,8.55
2024-02-29T22:23:51.344Z,8.63
2024-02-29T22:26:36.656Z,8.85
2024-02-29T22:29:23.235Z,9.02
2024-02-29T22:32:08.627Z,9.75
2024-02-29T22:34:53.977Z,8.77
2024-02-29T22:37:40.037Z,9.02
2024-02-29T22:40:26.239Z,8.75
2024-02-29T22:43:12.763Z,8.48
2024-02-29T22:45:57.849Z,7.97
2024-02-29T22:48:43.358Z,9.57
2024-02-29T22:51:28.512Z,8.55
2024-02-29T22:54:13.801Z,7.35
2024-02-29T22:56:59.271Z,8.45
2024-02-29T22:59:44.539Z,9.98
2024-02-29T23:02:29.911Z,9.98
2024-02-29T23:05:15.654Z,8.43
2024-02-29T23:08:01.192Z,7.88
2024-02-29T23:10:46.808Z,7.30
2024-02-29T23:13:32.169Z,8.05
2024-02-29T23:16:17.728Z,9.07
2024-02-29T23:19:03.044Z,8.02
2024-02-29T23:21:48.698Z,8.18
2024-02-29T23:24:34.412Z,7.88
2024-02-29T23:27:19.648Z,9.32
2024-02-29T23:30:09.506Z,8.25
2024-02-29T23:32:54.581Z,9.00
2024-02-29T23:35:39.940Z,9.55
2024-02-29T23:38:25.323Z,9.60
2024-02-29T23:41:10.727Z,8.82
2024-02-29T23:43:56.140Z,10.02
2024-02-29T23:46:42.700Z,9.50
2024-02-29T23:49:28.093Z,9.48
2024-02-29T23:52:13.570Z,8.25
2024-02-29T23:54:58.988Z,7.95
2024-02-29T23:57:44.726Z,8.00
